sensor_id;sensor_type;location;lat;lon;timestamp;temperature;humidity
9157;DHT22;4613;48.392;9.998;2022-11-04T00:01:41;9.40;99.90
9157;DHT22;4613;48.392;9.998;2022-11-04T00:04:30;9.50;99.90
9157;DHT22;4613;48.392;9.998;2022-11-04T00:07:20;9.50;99.90
9157;DHT22;4613;48.392;9.998;2022-11-04T00:10:28;9.50;99.90
9157;DHT22;4613;48.392;9.998;2022-11-04T00:13:36;9.50;99.90
9157;DHT22;4613;48.392;9.998;2022-11-04T00:16:25;9.50;99.90
9157;DHT22;4613;48.392;9.998;2022-11-04T00:19:33;9.50;99.90
9157;DHT22;4613;48.392;9.998;2022-11-04T00:22:41;9.50;99.90
9157;DHT22;4613;48.392;9.998;2022-11-04T00:25:50;9.50;99.90
9157;DHT22;4613;48.392;9.998;2022-11-04T00:28:57;9.50;99.90
9157;DHT22;4613;48.392;9.998;2022-11-04T00:31:47;9.50;99.90
9157;DHT22;4613;48.392;9.998;2022-11-04T00:34:58;9.50;99.90
9157;DHT22;4613;48.392;9.998;2022-11-04T00:37:47;9.50;99.90
9157;DHT22;4613;48.392;9.998;2022-11-04T00:40:36;9.50;99.90
9157;DHT22;4613;48.392;9.998;2022-11-04T00:43:28;9.50;99.90
9157;DHT22;4613;48.392;9.998;2022-11-04T00:46:21;9.50;99.90
9157;DHT22;4613;48.392;9.998;2022-11-04T00:49:11;9.50;99.90
9157;DHT22;4613;48.392;9.998;2022-11-04T00:52:01;9.50;99.90
9157;DHT22;4613;48.392;9.998;2022-11-04T00:54:50;9.50;99.90
9157;DHT22;4613;48.392;9.998;2022-11-04T00:57:39;9.50;99.90
9157;DHT22;4613;48.392;9.998;2022-11-04T01:00:28;9.50;99.90
9157;DHT22;4613;48.392;9.998;2022-11-04T01:03:17;9.50;99.90
9157;DHT22;4613;48.392;9.998;2022-11-04T01:06:07;9.60;99.90
9157;DHT22;4613;48.392;9.998;2022-11-04T01:08:59;9.60;99.90
9157;DHT22;4613;48.392;9.998;2022-11-04T01:11:49;9.60;99.90
9157;DHT22;4613;48.392;9.998;2022-11-04T01:14:39;9.60;99.90
9157;DHT22;4613;48.392;9.998;2022-11-04T01:17:28;9.60;99.90
9157;DHT22;4613;48.392;9.998;2022-11-04T01:20:17;9.60;99.90
9157;DHT22;4613;48.392;9.998;2022-11-04T01:23:06;9.60;99.90
9157;DHT22;4613;48.392;9.998;2022-11-04T01:25:55;9.60;99.90
9157;DHT22;4613;48.392;9.998;2022-11-04T01:28:45;9.60;99.90
9157;DHT22;4613;48.392;9.998;2022-11-04T01:31:35;9.50;99.90
9157;DHT22;4613;48.392;9.998;2022-11-04T01:34:24;9.50;99.90
9157;DHT22;4613;48.392;9.998;2022-11-04T01:37:14;9.50;99.90
9157;DHT22;4613;48.392;9.998;2022-11-04T01:40:04;9.50;99.90
9157;DHT22;4613;48.392;9.998;2022-11-04T01:42:53;9.40;99.90
9157;DHT22;4613;48.392;9.998;2022-11-04T01:45:45;9.50;99.90
9157;DHT22;4613;48.392;9.998;2022-11-04T01:48:36;9.40;99.90
9157;DHT22;4613;48.392;9.998;2022-11-04T01:51:26;9.40;99.90
9157;DHT22;4613;48.392;9.998;2022-11-04T01:54:17;9.40;99.90
9157;DHT22;4613;48.392;9.998;2022-11-04T01:57:08;9.40;99.90
9157;DHT22;4613;48.392;9.998;2022-11-04T02:00:02;9.40;99.90
9157;DHT22;4613;48.392;9.998;2022-11-04T02:03:11;9.40;99.90
9157;DHT22;4613;48.392;9.998;2022-11-04T02:06:02;9.40;99.90
9157;DHT22;4613;48.392;9.998;2022-11-04T02:08:53;9.30;99.90
9157;DHT22;4613;48.392;9.998;2022-11-04T02:11:43;9.30;99.90
9157;DHT22;4613;48.392;9.998;2022-11-04T02:14:53;9.30;99.90
9157;DHT22;4613;48.392;9.998;2022-11-04T02:21:10;9.30;99.90
9157;DHT22;4613;48.392;9.998;2022-11-04T02:27:32;9.30;99.90
9157;DHT22;4613;48.392;9.998;2022-11-04T02:30:28;9.40;99.90
9157;DHT22;4613;48.392;9.998;2022-11-04T02:33:28;9.30;99.90
9157;DHT22;4613;48.392;9.998;2022-11-04T02:36:32;9.30;99.90
9157;DHT22;4613;48.392;9.998;2022-11-04T02:39:49;9.30;99.90
9157;DHT22;4613;48.392;9.998;2022-11-04T02:45:49;9.30;99.90
9157;DHT22;4613;48.392;9.998;2022-11-04T02:48:46;9.30;99.90
9157;DHT22;4613;48.392;9.998;2022-11-04T02:51:52;9.30;99.90
9157;DHT22;4613;48.392;9.998;2022-11-04T02:54:53;9.40;99.90
9157;DHT22;4613;48.392;9.998;2022-11-04T02:57:46;9.30;99.90
9157;DHT22;4613;48.392;9.998;2022-11-04T03:00:38;9.20;99.90
9157;DHT22;4613;48.392;9.998;2022-11-04T03:03:44;9.20;99.90
9157;DHT22;4613;48.392;9.998;2022-11-04T03:06:36;9.20;99.90
9157;DHT22;4613;48.392;9.998;2022-11-04T03:09:28;9.30;99.90
9157;DHT22;4613;48.392;9.998;2022-11-04T03:12:24;9.30;99.90
9157;DHT22;4613;48.392;9.998;2022-11-04T03:15:22;9.30;99.90
9157;DHT22;4613;48.392;9.998;2022-11-04T03:21:22;9.30;99.90
9157;DHT22;4613;48.392;9.998;2022-11-04T03:24:12;9.30;99.90
9157;DHT22;4613;48.392;9.998;2022-11-04T03:30:17;9.30;99.90
9157;DHT22;4613;48.392;9.998;2022-11-04T03:36:08;9.20;99.90
9157;DHT22;4613;48.392;9.998;2022-11-04T03:38:58;9.20;99.90
9157;DHT22;4613;48.392;9.998;2022-11-04T03:41:51;9.30;99.90
9157;DHT22;4613;48.392;9.998;2022-11-04T03:44:41;9.20;99.90
9157;DHT22;4613;48.392;9.998;2022-11-04T03:47:32;9.40;99.90
9157;DHT22;4613;48.392;9.998;2022-11-04T03:50:26;9.50;99.90
9157;DHT22;4613;48.392;9.998;2022-11-04T03:53:19;9.60;99.90
9157;DHT22;4613;48.392;9.998;2022-11-04T03:59:37;9.20;99.90
9157;DHT22;4613;48.392;9.998;2022-11-04T04:05:30;9.30;99.90
9157;DHT22;4613;48.392;9.998;2022-11-04T04:11:50;9.10;99.90
9157;DHT22;4613;48.392;9.998;2022-11-04T04:14:50;9.10;99.90
9157;DHT22;4613;48.392;9.998;2022-11-04T04:17:49;9.20;99.90
9157;DHT22;4613;48.392;9.998;2022-11-04T04:20:41;9.10;99.90
9157;DHT22;4613;48.392;9.998;2022-11-04T04:23:33;9.10;99.90
9157;DHT22;4613;48.392;9.998;2022-11-04T04:26:44;9.00;99.90
9157;DHT22;4613;48.392;9.998;2022-11-04T04:29:53;9.00;99.90
9157;DHT22;4613;48.392;9.998;2022-11-04T04:32:46;8.90;99.90
9157;DHT22;4613;48.392;9.998;2022-11-04T04:35:45;8.90;99.90
9157;DHT22;4613;48.392;9.998;2022-11-04T04:38:40;8.80;99.90
9157;DHT22;4613;48.392;9.998;2022-11-04T04:41:49;8.90;99.90
9157;DHT22;4613;48.392;9.998;2022-11-04T04:45:01;9.00;99.90
9157;DHT22;4613;48.392;9.998;2022-11-04T04:47:53;9.00;99.90
9157;DHT22;4613;48.392;9.998;2022-11-04T04:50:48;9.00;99.90
9157;DHT22;4613;48.392;9.998;2022-11-04T04:53:38;9.00;99.90
9157;DHT22;4613;48.392;9.998;2022-11-04T04:56:27;8.90;99.90
9157;DHT22;4613;48.392;9.998;2022-11-04T04:59:16;8.90;99.90
9157;DHT22;4613;48.392;9.998;2022-11-04T05:02:06;9.00;99.90
9157;DHT22;4613;48.392;9.998;2022-11-04T05:04:56;9.00;99.90
9157;DHT22;4613;48.392;9.998;2022-11-04T05:07:47;9.10;99.90
9157;DHT22;4613;48.392;9.998;2022-11-04T05:10:37;8.80;99.90
9157;DHT22;4613;48.392;9.998;2022-11-04T05:13:28;8.70;99.90
9157;DHT22;4613;48.392;9.998;2022-11-04T05:16:18;8.50;99.90
9157;DHT22;4613;48.392;9.998;2022-11-04T05:19:08;8.50;99.90
9157;DHT22;4613;48.392;9.998;2022-11-04T05:21:57;8.50;99.90
9157;DHT22;4613;48.392;9.998;2022-11-04T05:24:49;8.40;99.90
9157;DHT22;4613;48.392;9.998;2022-11-04T05:27:39;8.40;99.90
9157;DHT22;4613;48.392;9.998;2022-11-04T05:30:28;8.60;99.90
9157;DHT22;4613;48.392;9.998;2022-11-04T05:33:17;8.50;99.90
9157;DHT22;4613;48.392;9.998;2022-11-04T05:36:09;8.50;99.90
9157;DHT22;4613;48.392;9.998;2022-11-04T05:38:59;8.40;99.90
9157;DHT22;4613;48.392;9.998;2022-11-04T05:41:48;8.40;99.90
9157;DHT22;4613;48.392;9.998;2022-11-04T05:44:38;8.50;99.90
9157;DHT22;4613;48.392;9.998;2022-11-04T05:47:28;8.30;99.90
9157;DHT22;4613;48.392;9.998;2022-11-04T05:50:17;8.40;99.90
9157;DHT22;4613;48.392;9.998;2022-11-04T05:53:07;8.40;99.90
9157;DHT22;4613;48.392;9.998;2022-11-04T05:55:56;8.30;99.90
9157;DHT22;4613;48.392;9.998;2022-11-04T05:58:46;8.20;99.90
9157;DHT22;4613;48.392;9.998;2022-11-04T06:01:40;8.30;99.90
9157;DHT22;4613;48.392;9.998;2022-11-04T06:04:30;8.20;99.90
9157;DHT22;4613;48.392;9.998;2022-11-04T06:07:20;8.30;99.90
9157;DHT22;4613;48.392;9.998;2022-11-04T06:10:10;8.40;99.90
9157;DHT22;4613;48.392;9.998;2022-11-04T06:12:59;8.40;99.90
9157;DHT22;4613;48.392;9.998;2022-11-04T06:15:49;8.30;99.90
9157;DHT22;4613;48.392;9.998;2022-11-04T06:18:38;8.40;99.90
9157;DHT22;4613;48.392;9.998;2022-11-04T06:21:32;8.20;99.90
9157;DHT22;4613;48.392;9.998;2022-11-04T06:24:24;8.20;99.90
9157;DHT22;4613;48.392;9.998;2022-11-04T06:27:13;8.30;99.90
9157;DHT22;4613;48.392;9.998;2022-11-04T06:30:04;8.50;99.90
9157;DHT22;4613;48.392;9.998;2022-11-04T06:32:53;8.60;99.90
9157;DHT22;4613;48.392;9.998;2022-11-04T06:35:42;8.50;99.90
9157;DHT22;4613;48.392;9.998;2022-11-04T06:38:33;8.40;99.90
9157;DHT22;4613;48.392;9.998;2022-11-04T06:41:23;8.50;99.90
9157;DHT22;4613;48.392;9.998;2022-11-04T06:44:13;8.50;99.90
9157;DHT22;4613;48.392;9.998;2022-11-04T06:47:02;8.50;99.90
9157;DHT22;4613;48.392;9.998;2022-11-04T06:49:52;8.60;99.90
9157;DHT22;4613;48.392;9.998;2022-11-04T06:52:42;8.70;99.90
9157;DHT22;4613;48.392;9.998;2022-11-04T06:55:34;8.80;99.90
9157;DHT22;4613;48.392;9.998;2022-11-04T06:58:24;8.80;99.90
9157;DHT22;4613;48.392;9.998;2022-11-04T07:01:15;8.70;99.90
9157;DHT22;4613;48.392;9.998;2022-11-04T07:04:04;8.60;99.90
9157;DHT22;4613;48.392;9.998;2022-11-04T07:06:55;8.60;99.90
9157;DHT22;4613;48.392;9.998;2022-11-04T07:09:45;8.60;99.90
9157;DHT22;4613;48.392;9.998;2022-11-04T07:12:34;8.50;99.90
9157;DHT22;4613;48.392;9.998;2022-11-04T07:15:23;8.40;99.90
9157;DHT22;4613;48.392;9.998;2022-11-04T07:18:12;8.40;99.90
9157;DHT22;4613;48.392;9.998;2022-11-04T07:21:02;8.40;99.90
9157;DHT22;4613;48.392;9.998;2022-11-04T07:23:53;8.40;99.90
9157;DHT22;4613;48.392;9.998;2022-11-04T07:26:43;8.40;99.90
9157;DHT22;4613;48.392;9.998;2022-11-04T07:29:32;8.90;99.90
9157;DHT22;4613;48.392;9.998;2022-11-04T07:32:22;9.40;99.90
9157;DHT22;4613;48.392;9.998;2022-11-04T07:35:11;9.60;99.90
9157;DHT22;4613;48.392;9.998;2022-11-04T07:38:01;9.00;99.90
9157;DHT22;4613;48.392;9.998;2022-11-04T07:40:51;8.80;99.90
9157;DHT22;4613;48.392;9.998;2022-11-04T07:43:41;8.80;99.90
9157;DHT22;4613;48.392;9.998;2022-11-04T07:46:31;8.70;99.90
9157;DHT22;4613;48.392;9.998;2022-11-04T07:49:21;8.60;99.90
9157;DHT22;4613;48.392;9.998;2022-11-04T07:52:11;8.60;99.90
9157;DHT22;4613;48.392;9.998;2022-11-04T07:55:00;8.70;99.90
9157;DHT22;4613;48.392;9.998;2022-11-04T07:57:49;8.60;99.90
9157;DHT22;4613;48.392;9.998;2022-11-04T08:00:38;8.70;99.90
9157;DHT22;4613;48.392;9.998;2022-11-04T08:03:29;8.70;99.90
9157;DHT22;4613;48.392;9.998;2022-11-04T08:06:20;8.60;99.90
9157;DHT22;4613;48.392;9.998;2022-11-04T08:09:09;8.60;99.90
9157;DHT22;4613;48.392;9.998;2022-11-04T08:11:59;8.60;99.90
9157;DHT22;4613;48.392;9.998;2022-11-04T08:14:48;8.60;99.90
9157;DHT22;4613;48.392;9.998;2022-11-04T08:17:37;8.30;99.90
9157;DHT22;4613;48.392;9.998;2022-11-04T08:20:26;8.50;99.90
9157;DHT22;4613;48.392;9.998;2022-11-04T08:23:16;8.40;99.90
9157;DHT22;4613;48.392;9.998;2022-11-04T08:26:08;8.60;99.90
9157;DHT22;4613;48.392;9.998;2022-11-04T08:28:57;8.60;99.90
9157;DHT22;4613;48.392;9.998;2022-11-04T08:31:47;8.50;99.90
9157;DHT22;4613;48.392;9.998;2022-11-04T08:34:36;8.50;99.90
9157;DHT22;4613;48.392;9.998;2022-11-04T08:37:26;8.30;99.90
9157;DHT22;4613;48.392;9.998;2022-11-04T08:40:18;8.60;99.90
9157;DHT22;4613;48.392;9.998;2022-11-04T08:43:07;8.50;99.90
9157;DHT22;4613;48.392;9.998;2022-11-04T08:45:56;8.70;99.90
9157;DHT22;4613;48.392;9.998;2022-11-04T08:48:46;8.70;99.90
9157;DHT22;4613;48.392;9.998;2022-11-04T08:51:41;8.80;99.90
9157;DHT22;4613;48.392;9.998;2022-11-04T08:54:31;8.60;99.90
9157;DHT22;4613;48.392;9.998;2022-11-04T08:57:20;8.50;99.90
9157;DHT22;4613;48.392;9.998;2022-11-04T09:00:10;8.50;99.90
9157;DHT22;4613;48.392;9.998;2022-11-04T09:03:00;8.70;99.90
9157;DHT22;4613;48.392;9.998;2022-11-04T09:05:49;8.60;99.90
9157;DHT22;4613;48.392;9.998;2022-11-04T09:08:39;8.60;99.90
9157;DHT22;4613;48.392;9.998;2022-11-04T09:11:35;8.90;99.90
9157;DHT22;4613;48.392;9.998;2022-11-04T09:14:25;8.70;99.90
9157;DHT22;4613;48.392;9.998;2022-11-04T09:17:15;9.00;99.90
9157;DHT22;4613;48.392;9.998;2022-11-04T09:20:04;8.90;99.90
9157;DHT22;4613;48.392;9.998;2022-11-04T09:22:57;8.90;99.90
9157;DHT22;4613;48.392;9.998;2022-11-04T09:25:47;9.20;99.90
9157;DHT22;4613;48.392;9.998;2022-11-04T09:28:37;9.00;99.90
9157;DHT22;4613;48.392;9.998;2022-11-04T09:31:28;9.10;99.90
9157;DHT22;4613;48.392;9.998;2022-11-04T09:34:17;9.10;99.90
9157;DHT22;4613;48.392;9.998;2022-11-04T09:37:07;9.10;99.90
9157;DHT22;4613;48.392;9.998;2022-11-04T09:39:57;9.10;99.90
9157;DHT22;4613;48.392;9.998;2022-11-04T09:45:58;9.30;99.90
9157;DHT22;4613;48.392;9.998;2022-11-04T09:48:53;9.50;99.90
9157;DHT22;4613;48.392;9.998;2022-11-04T09:51:45;9.40;99.90
9157;DHT22;4613;48.392;9.998;2022-11-04T09:55:06;9.40;99.90
9157;DHT22;4613;48.392;9.998;2022-11-04T09:57:55;9.50;99.90
9157;DHT22;4613;48.392;9.998;2022-11-04T10:04:29;9.60;99.90
9157;DHT22;4613;48.392;9.998;2022-11-04T10:07:40;9.40;99.90
9157;DHT22;4613;48.392;9.998;2022-11-04T10:11:20;9.40;99.90
9157;DHT22;4613;48.392;9.998;2022-11-04T10:14:22;9.40;99.90
9157;DHT22;4613;48.392;9.998;2022-11-04T10:17:22;9.40;99.90
9157;DHT22;4613;48.392;9.998;2022-11-04T10:20:41;9.50;99.90
9157;DHT22;4613;48.392;9.998;2022-11-04T10:23:42;9.50;99.90
9157;DHT22;4613;48.392;9.998;2022-11-04T10:29:51;9.70;99.90
9157;DHT22;4613;48.392;9.998;2022-11-04T10:35:46;9.70;99.90
9157;DHT22;4613;48.392;9.998;2022-11-04T10:38:40;9.80;99.90
9157;DHT22;4613;48.392;9.998;2022-11-04T10:41:36;9.70;99.90
9157;DHT22;4613;48.392;9.998;2022-11-04T10:44:28;9.70;99.90
9157;DHT22;4613;48.392;9.998;2022-11-04T10:47:27;9.60;99.90
9157;DHT22;4613;48.392;9.998;2022-11-04T10:50:40;9.90;99.90
9157;DHT22;4613;48.392;9.998;2022-11-04T10:53:32;10.10;99.90
9157;DHT22;4613;48.392;9.998;2022-11-04T10:59:55;10.30;99.90
9157;DHT22;4613;48.392;9.998;2022-11-04T11:02:46;10.00;99.90
9157;DHT22;4613;48.392;9.998;2022-11-04T11:05:35;10.10;99.90
9157;DHT22;4613;48.392;9.998;2022-11-04T11:08:30;10.20;99.90
9157;DHT22;4613;48.392;9.998;2022-11-04T11:11:42;10.30;99.90
9157;DHT22;4613;48.392;9.998;2022-11-04T11:14:35;10.30;99.90
9157;DHT22;4613;48.392;9.998;2022-11-04T11:17:35;10.50;99.90
9157;DHT22;4613;48.392;9.998;2022-11-04T11:20:25;10.30;99.90
9157;DHT22;4613;48.392;9.998;2022-11-04T11:23:43;10.50;99.90
9157;DHT22;4613;48.392;9.998;2022-11-04T11:26:35;10.50;99.90
9157;DHT22;4613;48.392;9.998;2022-11-04T11:29:28;10.70;99.90
9157;DHT22;4613;48.392;9.998;2022-11-04T11:32:33;10.80;99.90
9157;DHT22;4613;48.392;9.998;2022-11-04T11:35:33;10.80;99.90
9157;DHT22;4613;48.392;9.998;2022-11-04T11:38:31;10.90;99.90
9157;DHT22;4613;48.392;9.998;2022-11-04T11:41:21;10.90;99.90
9157;DHT22;4613;48.392;9.998;2022-11-04T11:50:29;11.20;99.90
9157;DHT22;4613;48.392;9.998;2022-11-04T11:53:23;11.00;99.90
9157;DHT22;4613;48.392;9.998;2022-11-04T11:56:24;11.00;99.90
9157;DHT22;4613;48.392;9.998;2022-11-04T12:05:54;10.90;99.90
9157;DHT22;4613;48.392;9.998;2022-11-04T12:09:06;10.80;99.90
9157;DHT22;4613;48.392;9.998;2022-11-04T12:15:42;11.00;99.90
9157;DHT22;4613;48.392;9.998;2022-11-04T12:25:10;10.80;99.90
9157;DHT22;4613;48.392;9.998;2022-11-04T12:44:36;10.80;99.90
9157;DHT22;4613;48.392;9.998;2022-11-04T12:47:37;10.90;99.90
9157;DHT22;4613;48.392;9.998;2022-11-04T12:54:03;10.70;99.90
9157;DHT22;4613;48.392;9.998;2022-11-04T12:57:52;10.80;99.90
9157;DHT22;4613;48.392;9.998;2022-11-04T13:00:20;10.90;99.90
9157;DHT22;4613;48.392;9.998;2022-11-04T13:03:20;10.80;99.90
9157;DHT22;4613;48.392;9.998;2022-11-04T13:06:16;10.70;99.90
9157;DHT22;4613;48.392;9.998;2022-11-04T13:09:12;10.70;99.90
9157;DHT22;4613;48.392;9.998;2022-11-04T13:12:10;10.60;99.90
9157;DHT22;4613;48.392;9.998;2022-11-04T13:15:22;10.90;99.90
9157;DHT22;4613;48.392;9.998;2022-11-04T13:18:17;11.00;99.90
9157;DHT22;4613;48.392;9.998;2022-11-04T13:21:08;11.10;99.90
9157;DHT22;4613;48.392;9.998;2022-11-04T13:24:19;10.90;99.90
9157;DHT22;4613;48.392;9.998;2022-11-04T13:27:32;10.90;99.90
9157;DHT22;4613;48.392;9.998;2022-11-04T13:39:56;10.70;99.90
9157;DHT22;4613;48.392;9.998;2022-11-04T13:52:09;10.70;99.90
9157;DHT22;4613;48.392;9.998;2022-11-04T13:55:02;10.50;99.90
9157;DHT22;4613;48.392;9.998;2022-11-04T13:57:57;10.50;99.90
9157;DHT22;4613;48.392;9.998;2022-11-04T14:04:44;10.70;99.90
9157;DHT22;4613;48.392;9.998;2022-11-04T14:07:15;10.60;99.90
9157;DHT22;4613;48.392;9.998;2022-11-04T14:16:38;10.40;99.90
9157;DHT22;4613;48.392;9.998;2022-11-04T14:19:56;10.40;99.90
9157;DHT22;4613;48.392;9.998;2022-11-04T14:22:49;10.50;99.90
9157;DHT22;4613;48.392;9.998;2022-11-04T14:25:40;10.50;99.90
9157;DHT22;4613;48.392;9.998;2022-11-04T14:28:33;10.30;99.90
9157;DHT22;4613;48.392;9.998;2022-11-04T14:31:39;10.40;99.90
9157;DHT22;4613;48.392;9.998;2022-11-04T14:34:31;10.40;99.90
9157;DHT22;4613;48.392;9.998;2022-11-04T14:37:26;10.70;99.90
9157;DHT22;4613;48.392;9.998;2022-11-04T14:40:27;10.50;99.90
9157;DHT22;4613;48.392;9.998;2022-11-04T14:43:30;10.70;99.90
9157;DHT22;4613;48.392;9.998;2022-11-04T14:46:26;10.80;99.90
9157;DHT22;4613;48.392;9.998;2022-11-04T14:49:39;10.80;99.90
9157;DHT22;4613;48.392;9.998;2022-11-04T14:55:31;10.80;99.90
9157;DHT22;4613;48.392;9.998;2022-11-04T14:58:25;10.90;99.90
9157;DHT22;4613;48.392;9.998;2022-11-04T15:01:16;10.70;99.90
9157;DHT22;4613;48.392;9.998;2022-11-04T15:04:23;10.70;99.90
9157;DHT22;4613;48.392;9.998;2022-11-04T15:10:25;10.60;99.90
9157;DHT22;4613;48.392;9.998;2022-11-04T15:13:18;10.60;99.90
9157;DHT22;4613;48.392;9.998;2022-11-04T15:16:14;10.40;99.90
9157;DHT22;4613;48.392;9.998;2022-11-04T15:19:07;10.40;99.90
9157;DHT22;4613;48.392;9.998;2022-11-04T15:21:59;10.30;99.90
9157;DHT22;4613;48.392;9.998;2022-11-04T15:24:49;10.40;99.90
9157;DHT22;4613;48.392;9.998;2022-11-04T15:27:40;10.40;99.90
9157;DHT22;4613;48.392;9.998;2022-11-04T15:30:29;10.70;99.90
9157;DHT22;4613;48.392;9.998;2022-11-04T15:33:19;10.80;99.90
9157;DHT22;4613;48.392;9.998;2022-11-04T15:36:14;10.60;99.90
9157;DHT22;4613;48.392;9.998;2022-11-04T15:42:15;10.30;99.90
9157;DHT22;4613;48.392;9.998;2022-11-04T15:45:32;10.40;99.90
9157;DHT22;4613;48.392;9.998;2022-11-04T15:51:22;10.40;99.90
9157;DHT22;4613;48.392;9.998;2022-11-04T15:54:24;10.40;99.90
9157;DHT22;4613;48.392;9.998;2022-11-04T15:57:22;10.50;99.90
9157;DHT22;4613;48.392;9.998;2022-11-04T16:03:04;10.40;99.90
9157;DHT22;4613;48.392;9.998;2022-11-04T16:06:05;10.50;99.90
9157;DHT22;4613;48.392;9.998;2022-11-04T16:09:06;10.60;99.90
9157;DHT22;4613;48.392;9.998;2022-11-04T16:12:12;10.70;99.90
9157;DHT22;4613;48.392;9.998;2022-11-04T16:15:03;12.30;99.90
9157;DHT22;4613;48.392;9.998;2022-11-04T16:17:52;12.40;99.90
9157;DHT22;4613;48.392;9.998;2022-11-04T16:20:44;12.40;99.90
9157;DHT22;4613;48.392;9.998;2022-11-04T16:23:42;12.00;99.90
9157;DHT22;4613;48.392;9.998;2022-11-04T16:26:38;11.10;99.90
9157;DHT22;4613;48.392;9.998;2022-11-04T16:29:31;10.60;99.90
9157;DHT22;4613;48.392;9.998;2022-11-04T16:32:38;10.50;99.90
9157;DHT22;4613;48.392;9.998;2022-11-04T16:35:28;10.50;99.90
9157;DHT22;4613;48.392;9.998;2022-11-04T16:38:18;10.40;99.90
9157;DHT22;4613;48.392;9.998;2022-11-04T16:41:08;10.10;99.90
9157;DHT22;4613;48.392;9.998;2022-11-04T16:43:57;9.90;99.90
9157;DHT22;4613;48.392;9.998;2022-11-04T16:46:48;9.90;99.90
9157;DHT22;4613;48.392;9.998;2022-11-04T16:49:37;10.10;99.90
9157;DHT22;4613;48.392;9.998;2022-11-04T16:52:27;10.20;99.90
9157;DHT22;4613;48.392;9.998;2022-11-04T16:55:19;10.20;99.90
9157;DHT22;4613;48.392;9.998;2022-11-04T16:58:16;9.90;99.90
9157;DHT22;4613;48.392;9.998;2022-11-04T17:01:07;10.00;99.90
9157;DHT22;4613;48.392;9.998;2022-11-04T17:03:56;9.90;99.90
9157;DHT22;4613;48.392;9.998;2022-11-04T17:06:46;9.90;99.90
9157;DHT22;4613;48.392;9.998;2022-11-04T17:09:36;9.70;99.90
9157;DHT22;4613;48.392;9.998;2022-11-04T17:12:26;9.70;99.90
9157;DHT22;4613;48.392;9.998;2022-11-04T17:15:15;9.50;99.90
9157;DHT22;4613;48.392;9.998;2022-11-04T17:18:06;9.40;99.90
9157;DHT22;4613;48.392;9.998;2022-11-04T17:20:56;9.30;99.90
9157;DHT22;4613;48.392;9.998;2022-11-04T17:23:46;9.40;99.90
9157;DHT22;4613;48.392;9.998;2022-11-04T17:26:37;9.40;99.90
9157;DHT22;4613;48.392;9.998;2022-11-04T17:29:26;9.50;99.90
9157;DHT22;4613;48.392;9.998;2022-11-04T17:32:18;9.70;99.90
9157;DHT22;4613;48.392;9.998;2022-11-04T17:35:09;9.60;99.90
9157;DHT22;4613;48.392;9.998;2022-11-04T17:37:58;9.60;99.90
9157;DHT22;4613;48.392;9.998;2022-11-04T17:40:48;9.50;99.90
9157;DHT22;4613;48.392;9.998;2022-11-04T17:43:56;9.50;99.90
9157;DHT22;4613;48.392;9.998;2022-11-04T17:46:48;9.50;99.90
9157;DHT22;4613;48.392;9.998;2022-11-04T17:49:38;9.40;99.90
9157;DHT22;4613;48.392;9.998;2022-11-04T17:52:28;9.30;99.90
9157;DHT22;4613;48.392;9.998;2022-11-04T17:55:17;9.50;99.90
9157;DHT22;4613;48.392;9.998;2022-11-04T17:58:07;9.50;99.90
9157;DHT22;4613;48.392;9.998;2022-11-04T18:00:57;9.50;99.90
9157;DHT22;4613;48.392;9.998;2022-11-04T18:03:46;9.50;99.90
9157;DHT22;4613;48.392;9.998;2022-11-04T18:06:36;9.30;99.90
9157;DHT22;4613;48.392;9.998;2022-11-04T18:09:25;9.40;99.90
9157;DHT22;4613;48.392;9.998;2022-11-04T18:12:15;9.30;99.90
9157;DHT22;4613;48.392;9.998;2022-11-04T18:15:23;9.10;99.90
9157;DHT22;4613;48.392;9.998;2022-11-04T18:18:14;8.80;99.90
9157;DHT22;4613;48.392;9.998;2022-11-04T18:21:05;9.20;99.90
9157;DHT22;4613;48.392;9.998;2022-11-04T18:23:54;8.90;99.90
9157;DHT22;4613;48.392;9.998;2022-11-04T18:26:45;8.70;99.90
9157;DHT22;4613;48.392;9.998;2022-11-04T18:29:37;8.70;99.90
9157;DHT22;4613;48.392;9.998;2022-11-04T18:32:26;8.70;99.90
9157;DHT22;4613;48.392;9.998;2022-11-04T18:35:16;8.80;99.90
9157;DHT22;4613;48.392;9.998;2022-11-04T18:38:06;9.00;99.90
9157;DHT22;4613;48.392;9.998;2022-11-04T18:40:56;9.10;99.90
9157;DHT22;4613;48.392;9.998;2022-11-04T18:43:45;9.10;99.90
9157;DHT22;4613;48.392;9.998;2022-11-04T18:46:36;9.00;99.90
9157;DHT22;4613;48.392;9.998;2022-11-04T18:49:26;9.00;99.90
9157;DHT22;4613;48.392;9.998;2022-11-04T18:52:15;9.00;99.90
9157;DHT22;4613;48.392;9.998;2022-11-04T18:55:06;9.10;99.90
9157;DHT22;4613;48.392;9.998;2022-11-04T18:57:55;9.10;99.90
9157;DHT22;4613;48.392;9.998;2022-11-04T19:00:45;9.00;99.90
9157;DHT22;4613;48.392;9.998;2022-11-04T19:03:36;9.00;99.90
9157;DHT22;4613;48.392;9.998;2022-11-04T19:06:29;8.90;99.90
9157;DHT22;4613;48.392;9.998;2022-11-04T19:09:20;8.90;99.90
9157;DHT22;4613;48.392;9.998;2022-11-04T19:12:10;8.80;99.90
9157;DHT22;4613;48.392;9.998;2022-11-04T19:15:18;8.70;99.90
9157;DHT22;4613;48.392;9.998;2022-11-04T19:18:08;10.60;99.90
9157;DHT22;4613;48.392;9.998;2022-11-04T19:21:06;9.40;99.90
9157;DHT22;4613;48.392;9.998;2022-11-04T19:23:56;9.20;99.90
9157;DHT22;4613;48.392;9.998;2022-11-04T19:26:48;9.10;99.90
9157;DHT22;4613;48.392;9.998;2022-11-04T19:29:37;8.90;99.90
9157;DHT22;4613;48.392;9.998;2022-11-04T19:32:25;9.00;99.90
9157;DHT22;4613;48.392;9.998;2022-11-04T19:35:15;8.90;99.90
9157;DHT22;4613;48.392;9.998;2022-11-04T19:38:06;8.80;99.90
9157;DHT22;4613;48.392;9.998;2022-11-04T19:41:05;8.70;99.90
9157;DHT22;4613;48.392;9.998;2022-11-04T19:43:56;8.70;99.90
9157;DHT22;4613;48.392;9.998;2022-11-04T19:46:46;8.90;99.90
9157;DHT22;4613;48.392;9.998;2022-11-04T19:49:36;8.80;99.90
9157;DHT22;4613;48.392;9.998;2022-11-04T19:52:25;8.90;99.90
9157;DHT22;4613;48.392;9.998;2022-11-04T19:55:15;8.90;99.90
9157;DHT22;4613;48.392;9.998;2022-11-04T19:58:05;8.90;99.90
9157;DHT22;4613;48.392;9.998;2022-11-04T20:00:54;8.80;99.90
9157;DHT22;4613;48.392;9.998;2022-11-04T20:03:44;8.70;99.90
9157;DHT22;4613;48.392;9.998;2022-11-04T20:06:35;8.60;99.90
9157;DHT22;4613;48.392;9.998;2022-11-04T20:09:24;8.60;99.90
9157;DHT22;4613;48.392;9.998;2022-11-04T20:12:14;8.70;99.90
9157;DHT22;4613;48.392;9.998;2022-11-04T20:15:22;8.70;99.90
9157;DHT22;4613;48.392;9.998;2022-11-04T20:18:13;8.60;99.90
9157;DHT22;4613;48.392;9.998;2022-11-04T20:21:04;8.70;99.90
9157;DHT22;4613;48.392;9.998;2022-11-04T20:23:55;8.80;99.90
9157;DHT22;4613;48.392;9.998;2022-11-04T20:26:44;8.60;99.90
9157;DHT22;4613;48.392;9.998;2022-11-04T20:29:37;8.70;99.90
9157;DHT22;4613;48.392;9.998;2022-11-04T20:32:26;8.70;99.90
9157;DHT22;4613;48.392;9.998;2022-11-04T20:35:16;8.60;99.90
9157;DHT22;4613;48.392;9.998;2022-11-04T20:38:06;8.60;99.90
9157;DHT22;4613;48.392;9.998;2022-11-04T20:41:11;8.60;99.90
9157;DHT22;4613;48.392;9.998;2022-11-04T20:44:08;8.50;99.90
9157;DHT22;4613;48.392;9.998;2022-11-04T20:46:58;8.40;99.90
9157;DHT22;4613;48.392;9.998;2022-11-04T20:49:48;8.30;99.90
9157;DHT22;4613;48.392;9.998;2022-11-04T20:52:37;8.40;99.90
9157;DHT22;4613;48.392;9.998;2022-11-04T20:55:29;8.30;99.90
9157;DHT22;4613;48.392;9.998;2022-11-04T20:58:21;8.30;99.90
9157;DHT22;4613;48.392;9.998;2022-11-04T21:01:13;8.50;99.90
9157;DHT22;4613;48.392;9.998;2022-11-04T21:04:04;8.60;99.90
9157;DHT22;4613;48.392;9.998;2022-11-04T21:06:55;8.30;99.90
9157;DHT22;4613;48.392;9.998;2022-11-04T21:09:46;8.20;99.90
9157;DHT22;4613;48.392;9.998;2022-11-04T21:12:39;8.10;99.90
9157;DHT22;4613;48.392;9.998;2022-11-04T21:15:28;8.10;99.90
9157;DHT22;4613;48.392;9.998;2022-11-04T21:18:30;8.00;99.90
9157;DHT22;4613;48.392;9.998;2022-11-04T21:21:20;8.30;99.90